Glen Ferris, West Virginia
Current Conditions -  °F | °C
As of 4:51 PM on Sunday 21 Dec 2014 (Local Time) from KBKW Reporting Station
Clear Clear  
Wind Chill: 35°   Ceiling: Unl
Heat Index: 41°   Visibility: 10mi
Dew Point: 28°   Wind: 9mph
Humidity: 60%   Direction: 130°SE
Pressure: 30.12"   Gusts: NA
Location:  38.15°N, 81.21°W
Report Text: KBKW 212151Z AUTO 13008KT 10SM CLR 05/M02 A3012 RMK AO2 SLP221 T00501022
Loading
Personal Weather Stations






























Interactive Weather Map New forecast layout! Learn more

10-Day Weather Forecast

Advertisements
Track Severe Weather on mobile